Time;durP1;ratioP1;P1;durP2;ratioP2;P2;SDS_P1;SDS_P2;PMS_P1;PMS_P2;Temp;Humidity;BMP_temperature;BMP_pressure;BME280_temperature;BME280_humidity;BME280_pressure;Samples;Min_cycle;Max_cycle;Signal;HPM_P1;HPM_P2
2024/01/13 00:01:05;;;;;;;3.40;2.75;;;;;;;;;;4993647;28;92365;-78
2024/01/13 00:03:31;;;;;;;6.57;2.47;;;;;;;;;;4997047;28;92330;-78
2024/01/13 00:05:59;;;;;;;3.10;2.38;;;;;;;;;;4993576;28;92800;-79
2024/01/13 00:08:26;;;;;;;5.28;2.47;;;;;;;;;;5003168;28;92302;-78
2024/01/13 00:11:03;;;;;;;3.35;2.63;;;;;;;;;;4999293;28;93037;-78
2024/01/13 00:13:29;;;;;;;5.65;2.47;;;;;;;;;;5000748;28;93890;-78
2024/01/13 00:15:56;;;;;;;2.78;2.58;;;;;;;;;;5005886;28;92573;-78
2024/01/13 00:18:23;;;;;;;2.95;2.63;;;;;;;;;;4981175;28;94872;-78
2024/01/13 00:21:04;;;;;;;3.27;2.73;;;;;;;;;;5007885;28;95318;-78
2024/01/13 00:23:31;;;;;;;2.45;2.25;;;;;;;;;;4999875;28;92492;-78
2024/01/13 00:25:57;;;;;;;2.67;2.45;;;;;;;;;;5001066;28;92811;-78
2024/01/13 00:28:24;;;;;;;2.45;2.25;;;;;;;;;;4998912;28;93281;-78
2024/01/13 00:31:01;;;;;;;2.75;2.30;;;;;;;;;;5013072;28;93170;-78
2024/01/13 00:33:28;;;;;;;2.28;1.98;;;;;;;;;;4998957;28;92786;-78
2024/01/13 00:35:55;;;;;;;2.45;2.28;;;;;;;;;;4998336;28;92157;-78
2024/01/13 00:38:21;;;;;;;2.45;2.00;;;;;;;;;;5003168;28;92298;-78
2024/01/13 00:41:00;;;;;;;1.88;1.77;;;;;;;;;;5006695;28;92751;-78
2024/01/13 00:43:27;;;;;;;3.05;2.40;;;;;;;;;;5007557;28;94741;-78
2024/01/13 00:45:53;;;;;;;2.17;2.00;;;;;;;;;;5002319;28;93503;-78
2024/01/13 00:48:19;;;;;;;2.92;1.70;;;;;;;;;;5010705;28;92623;-78
2024/01/13 00:50:55;;;;;;;2.55;1.90;;;;;;;;;;4998766;28;92432;-78
2024/01/13 00:53:22;;;;;;;1.88;1.77;;;;;;;;;;4998487;28;92408;-78
2024/01/13 00:55:48;;;;;;;2.10;1.88;;;;;;;;;;4997824;28;92901;-78
2024/01/13 00:58:16;;;;;;;3.28;1.85;;;;;;;;;;5004781;28;92970;-78
2024/01/13 01:00:59;;;;;;;3.13;1.63;;;;;;;;;;5005961;28;92779;-78
2024/01/13 01:03:26;;;;;;;2.15;1.98;;;;;;;;;;5008758;28;92546;-78
2024/01/13 01:05:53;;;;;;;1.98;1.88;;;;;;;;;;5008354;28;92856;-78
2024/01/13 01:08:20;;;;;;;1.80;1.70;;;;;;;;;;5005376;28;94832;-78
2024/01/13 01:10:52;;;;;;;1.80;1.55;;;;;;;;;;4998886;28;94319;-78
2024/01/13 01:13:19;;;;;;;1.70;1.60;;;;;;;;;;5002135;28;92358;-78
2024/01/13 01:15:46;;;;;;;2.08;1.70;;;;;;;;;;4999439;28;93450;-78
2024/01/13 01:18:13;;;;;;;2.75;1.73;;;;;;;;;;4994538;28;92652;-78
2024/01/13 01:20:49;;;;;;;1.80;1.70;;;;;;;;;;4998981;28;92646;-78
2024/01/13 01:23:16;;;;;;;1.42;1.33;;;;;;;;;;5004977;28;92966;-77
2024/01/13 01:25:43;;;;;;;2.47;1.48;;;;;;;;;;5013874;28;92224;-78
2024/01/13 01:28:09;;;;;;;1.50;1.40;;;;;;;;;;5004108;28;92689;-77
2024/01/13 01:30:44;;;;;;;1.88;1.20;;;;;;;;;;4981514;28;95103;-78
2024/01/13 01:33:10;;;;;;;1.38;1.35;;;;;;;;;;5000879;28;94839;-77
2024/01/13 01:35:37;;;;;;;1.40;1.30;;;;;;;;;;5006322;28;94129;-77
2024/01/13 01:38:03;;;;;;;0.90;0.90;;;;;;;;;;5000600;28;92468;-77
2024/01/13 01:40:30;;;;;;;2.42;1.45;;;;;;;;;;5002669;28;92494;-78
2024/01/13 01:42:57;;;;;;;1.60;1.10;;;;;;;;;;5001776;28;92552;-78
2024/01/13 01:45:23;;;;;;;1.30;1.20;;;;;;;;;;5007638;28;92431;-77
2024/01/13 01:47:51;;;;;;;1.30;1.20;;;;;;;;;;4993207;28;92512;-77
2024/01/13 01:50:17;;;;;;;1.40;1.13;;;;;;;;;;5005286;28;92089;-78
2024/01/13 01:52:44;;;;;;;1.45;1.27;;;;;;;;;;5012066;28;92431;-78
2024/01/13 01:55:10;;;;;;;1.25;1.00;;;;;;;;;;4998122;28;93777;-78
2024/01/13 01:57:38;;;;;;;1.35;1.30;;;;;;;;;;4995898;28;95180;-78
2024/01/13 02:00:08;;;;;;;1.70;1.10;;;;;;;;;;5014025;28;93392;-78
2024/01/13 02:02:38;;;;;;;3.15;1.10;;;;;;;;;;5010422;28;93053;-78
2024/01/13 02:05:05;;;;;;;1.10;1.10;;;;;;;;;;5012507;28;92742;-78
2024/01/13 02:07:33;;;;;;;0.90;0.90;;;;;;;;;;5000326;28;92532;-78
2024/01/13 02:10:00;;;;;;;1.10;1.00;;;;;;;;;;5011170;28;92357;-78
2024/01/13 02:12:26;;;;;;;0.90;0.90;;;;;;;;;;5001696;28;92875;-78
2024/01/13 02:14:54;;;;;;;1.08;1.02;;;;;;;;;;5010805;28;92304;-78
2024/01/13 02:17:22;;;;;;;1.98;1.20;;;;;;;;;;5014236;28;92582;-78
2024/01/13 02:19:48;;;;;;;1.23;1.13;;;;;;;;;;5012589;28;92132;-78
2024/01/13 02:22:15;;;;;;;1.52;0.93;;;;;;;;;;5007533;28;94784;-78
2024/01/13 02:24:41;;;;;;;1.30;1.20;;;;;;;;;;5006717;28;92325;-78
2024/01/13 02:27:08;;;;;;;1.67;0.90;;;;;;;;;;5014091;28;94043;-78
2024/01/13 02:29:34;;;;;;;1.02;0.98;;;;;;;;;;5003455;28;93161;-78
2024/01/13 02:32:01;;;;;;;1.20;1.20;;;;;;;;;;4995796;28;92538;-78
2024/01/13 02:34:27;;;;;;;1.20;1.10;;;;;;;;;;4994917;28;92451;-78
2024/01/13 02:36:54;;;;;;;2.92;1.13;;;;;;;;;;4995657;28;95565;-78
2024/01/13 02:39:20;;;;;;;1.17;1.05;;;;;;;;;;4978354;28;95236;-77
2024/01/13 02:41:47;;;;;;;0.80;0.80;;;;;;;;;;5002271;28;92472;-78
2024/01/13 02:44:14;;;;;;;0.93;0.93;;;;;;;;;;4999723;28;92407;-78
2024/01/13 02:46:40;;;;;;;1.10;1.00;;;;;;;;;;4998145;28;94831;-78
2024/01/13 02:49:07;;;;;;;1.42;1.33;;;;;;;;;;4992928;28;92415;-78
2024/01/13 02:51:34;;;;;;;2.70;1.20;;;;;;;;;;5003586;28;92394;-78
2024/01/13 02:54:01;;;;;;;0.88;0.88;;;;;;;;;;4992791;28;92866;-78
2024/01/13 02:56:27;;;;;;;1.77;1.48;;;;;;;;;;5005391;28;92498;-78
2024/01/13 02:58:53;;;;;;;2.15;1.33;;;;;;;;;;4999334;28;92492;-78
2024/01/13 03:01:20;;;;;;;1.48;1.08;;;;;;;;;;4991858;28;94325;-78
2024/01/13 03:03:49;;;;;;;1.17;1.08;;;;;;;;;;4996071;28;92237;-78
2024/01/13 03:06:19;;;;;;;;;;;;;;;;;;4996593;28;92904;-77
2024/01/13 03:08:46;;;;;;;1.13;1.13;;;;;;;;;;5007934;28;101691;-78
2024/01/13 03:11:12;;;;;;;0.82;0.82;;;;;;;;;;4993936;28;94922;-78
2024/01/13 03:13:42;;;;;;;1.15;1.15;;;;;;;;;;4991983;28;95787;-78
2024/01/13 03:16:09;;;;;;;1.67;1.40;;;;;;;;;;4993148;28;93193;-77
2024/01/13 03:18:36;;;;;;;1.42;1.30;;;;;;;;;;4989387;28;92454;-77
2024/01/13 03:21:08;;;;;;;1.23;1.13;;;;;;;;;;5002408;28;92381;-77
2024/01/13 03:23:35;;;;;;;1.48;1.45;;;;;;;;;;4990764;28;92531;-77
2024/01/13 03:26:02;;;;;;;1.58;1.48;;;;;;;;;;5004828;28;92732;-78
2024/01/13 03:28:28;;;;;;;1.98;1.77;;;;;;;;;;5001863;28;92256;-78
2024/01/13 03:31:07;;;;;;;1.73;1.63;;;;;;;;;;5007409;28;92920;-77
2024/01/13 03:33:34;;;;;;;1.40;1.30;;;;;;;;;;4990946;28;92451;-77
2024/01/13 03:36:00;;;;;;;4.95;1.40;;;;;;;;;;5003069;28;95104;-77
2024/01/13 03:38:27;;;;;;;3.10;1.63;;;;;;;;;;5000662;28;92504;-78
2024/01/13 03:41:06;;;;;;;1.48;1.38;;;;;;;;;;5007438;28;92834;-78
2024/01/13 03:43:33;;;;;;;1.88;1.77;;;;;;;;;;5000733;28;93189;-78
2024/01/13 03:46:00;;;;;;;1.23;1.23;;;;;;;;;;4996100;28;93487;-78
2024/01/13 03:48:26;;;;;;;1.83;1.73;;;;;;;;;;4994193;28;92898;-78
2024/01/13 03:50:53;;;;;;;2.03;1.92;;;;;;;;;;5008649;28;93382;-78
2024/01/13 03:53:20;;;;;;;2.38;1.92;;;;;;;;;;4991483;28;92589;-78
2024/01/13 03:55:46;;;;;;;2.40;2.20;;;;;;;;;;4993812;28;92287;-78
2024/01/13 03:58:13;;;;;;;2.10;2.00;;;;;;;;;;4994603;28;92468;-78
2024/01/13 04:00:39;;;;;;;2.25;1.95;;;;;;;;;;4992532;28;94954;-78
2024/01/13 04:03:06;;;;;;;2.13;1.95;;;;;;;;;;4990602;28;92414;-77
2024/01/13 04:05:34;;;;;;;2.70;2.50;;;;;;;;;;5000871;28;92493;-78
2024/01/13 04:08:01;;;;;;;2.45;2.25;;;;;;;;;;4992335;28;92511;-78
2024/01/13 04:10:27;;;;;;;2.53;2.33;;;;;;;;;;5000271;28;93317;-78
2024/01/13 04:12:55;;;;;;;2.13;2.03;;;;;;;;;;4980046;28;93638;-78
2024/01/13 04:15:22;;;;;;;2.50;2.30;;;;;;;;;;4999983;28;96172;-78
2024/01/13 04:17:48;;;;;;;2.50;2.30;;;;;;;;;;4997972;28;92180;-78
2024/01/13 04:20:15;;;;;;;2.50;2.30;;;;;;;;;;5008601;28;92539;-78
2024/01/13 04:22:42;;;;;;;2.05;1.95;;;;;;;;;;4997567;28;92588;-78
2024/01/13 04:25:08;;;;;;;2.75;2.45;;;;;;;;;;4995505;28;94894;-78
2024/01/13 04:27:35;;;;;;;2.88;2.50;;;;;;;;;;5002983;28;94017;-78
2024/01/13 04:30:01;;;;;;;2.55;2.35;;;;;;;;;;5001299;28;93160;-78
2024/01/13 04:32:28;;;;;;;2.53;2.33;;;;;;;;;;5008478;28;92497;-77
2024/01/13 04:34:55;;;;;;;3.30;3.10;;;;;;;;;;4999973;28;92488;-78
2024/01/13 04:37:22;;;;;;;2.75;2.53;;;;;;;;;;4998904;28;92439;-78
2024/01/13 04:39:48;;;;;;;2.83;2.55;;;;;;;;;;5000221;28;92325;-78
2024/01/13 04:42:15;;;;;;;2.47;2.28;;;;;;;;;;5011118;28;92857;-78
2024/01/13 04:44:41;;;;;;;2.67;2.47;;;;;;;;;;5003908;28;93068;-78
2024/01/13 04:47:08;;;;;;;2.72;2.53;;;;;;;;;;4998103;28;92925;-78
2024/01/13 04:49:34;;;;;;;3.50;2.72;;;;;;;;;;4994117;28;96606;-78
2024/01/13 04:52:00;;;;;;;2.20;2.10;;;;;;;;;;5008169;28;92998;-78
2024/01/13 04:54:27;;;;;;;2.75;2.55;;;;;;;;;;4994433;28;92450;-77
2024/01/13 04:56:54;;;;;;;2.47;2.28;;;;;;;;;;5008311;28;92747;-77
2024/01/13 04:59:20;;;;;;;3.78;2.83;;;;;;;;;;5007132;28;93427;-78
2024/01/13 05:01:47;;;;;;;3.05;2.20;;;;;;;;;;4997601;28;95106;-78
2024/01/13 05:04:13;;;;;;;2.50;2.30;;;;;;;;;;5004291;28;93463;-77
2024/01/13 05:06:40;;;;;;;3.20;2.60;;;;;;;;;;5009123;28;92369;-78
2024/01/13 05:09:07;;;;;;;2.63;2.40;;;;;;;;;;5005235;28;93171;-77
2024/01/13 05:11:33;;;;;;;2.50;2.30;;;;;;;;;;4997977;28;92500;-77
2024/01/13 05:14:00;;;;;;;2.30;2.10;;;;;;;;;;5007002;28;94476;-78
2024/01/13 05:16:26;;;;;;;4.32;3.50;;;;;;;;;;4995108;28;93982;-77
2024/01/13 05:18:53;;;;;;;2.60;2.40;;;;;;;;;;4999930;28;92926;-77
2024/01/13 05:21:20;;;;;;;2.63;2.42;;;;;;;;;;5005902;28;92159;-78
2024/01/13 05:23:46;;;;;;;2.33;2.15;;;;;;;;;;4997228;28;92605;-78
2024/01/13 05:26:13;;;;;;;3.65;2.30;;;;;;;;;;5007256;28;94311;-77
2024/01/13 05:28:40;;;;;;;2.45;2.28;;;;;;;;;;4997412;28;92928;-78
2024/01/13 05:31:06;;;;;;;2.53;2.33;;;;;;;;;;4999867;28;95089;-77
2024/01/13 05:33:33;;;;;;;2.20;2.03;;;;;;;;;;4993955;28;92883;-77
2024/01/13 05:36:00;;;;;;;2.00;1.90;;;;;;;;;;4997391;28;92421;-77
2024/01/13 05:38:26;;;;;;;2.40;2.20;;;;;;;;;;4989316;28;95295;-77
2024/01/13 05:40:52;;;;;;;1.83;1.73;;;;;;;;;;4999602;28;93245;-78
2024/01/13 05:43:19;;;;;;;4.20;2.50;;;;;;;;;;4993422;28;92440;-78
2024/01/13 05:45:45;;;;;;;1.85;1.75;;;;;;;;;;5004440;28;93878;-77
2024/01/13 05:48:12;;;;;;;2.38;2.28;;;;;;;;;;5004279;28;92786;-78
2024/01/13 05:50:38;;;;;;;2.75;2.55;;;;;;;;;;5007761;28;92423;-77
2024/01/13 05:53:06;;;;;;;2.63;2.45;;;;;;;;;;4998895;28;92414;-77
2024/01/13 05:55:32;;;;;;;2.20;2.00;;;;;;;;;;5004734;28;92488;-77
2024/01/13 05:57:58;;;;;;;3.17;2.17;;;;;;;;;;5007462;28;92776;-77
2024/01/13 06:00:26;;;;;;;2.75;2.55;;;;;;;;;;5015006;28;93079;-77
2024/01/13 06:02:53;;;;;;;2.13;2.00;;;;;;;;;;5007311;28;95084;-77
2024/01/13 06:05:20;;;;;;;2.70;2.50;;;;;;;;;;5010107;28;94020;-77
2024/01/13 06:07:47;;;;;;;2.30;2.10;;;;;;;;;;4993488;28;93097;-77
2024/01/13 06:10:14;;;;;;;4.10;2.17;;;;;;;;;;5002874;28;93266;-77
2024/01/13 06:12:41;;;;;;;2.60;2.40;;;;;;;;;;4992185;28;92493;-77
2024/01/13 06:15:08;;;;;;;2.13;2.03;;;;;;;;;;5004233;28;93114;-77
2024/01/13 06:17:34;;;;;;;2.25;2.13;;;;;;;;;;4991899;28;92755;-77
2024/01/13 06:20:01;;;;;;;2.88;2.28;;;;;;;;;;5001800;28;92080;-77
2024/01/13 06:22:27;;;;;;;2.75;2.55;;;;;;;;;;5004244;28;92812;-77
2024/01/13 06:24:54;;;;;;;3.00;2.20;;;;;;;;;;4997181;28;92884;-77
2024/01/13 06:27:20;;;;;;;2.47;2.28;;;;;;;;;;4998388;28;95952;-77
2024/01/13 06:29:47;;;;;;;2.83;2.63;;;;;;;;;;4995990;28;92531;-77
2024/01/13 06:32:13;;;;;;;2.67;2.38;;;;;;;;;;4994142;28;92737;-77
2024/01/13 06:34:39;;;;;;;2.58;2.38;;;;;;;;;;4993230;28;92985;-77
2024/01/13 06:37:06;;;;;;;2.72;2.53;;;;;;;;;;4990787;28;94828;-77
2024/01/13 06:39:35;;;;;;;2.63;2.42;;;;;;;;;;4996563;28;93210;-77
2024/01/13 06:42:06;;;;;;;3.03;2.38;;;;;;;;;;4997215;28;92431;-77
2024/01/13 06:44:33;;;;;;;2.92;2.63;;;;;;;;;;5002907;28;92590;-77
2024/01/13 06:47:09;;;;;;;6.50;2.40;;;;;;;;;;4994952;28;92445;-77
2024/01/13 06:49:35;;;;;;;2.53;2.33;;;;;;;;;;4994364;28;92596;-77
2024/01/13 06:52:02;;;;;;;2.17;1.98;;;;;;;;;;5004478;28;95316;-77
2024/01/13 06:54:29;;;;;;;2.35;2.15;;;;;;;;;;5009421;28;92619;-77
2024/01/13 06:56:55;;;;;;;2.50;2.30;;;;;;;;;;5010524;28;92732;-77
2024/01/13 06:59:21;;;;;;;2.58;2.38;;;;;;;;;;5010365;28;94459;-77
2024/01/13 07:01:48;;;;;;;1.92;1.83;;;;;;;;;;5013531;28;92449;-77
2024/01/13 07:04:14;;;;;;;2.17;2.08;;;;;;;;;;4996256;28;92781;-77
2024/01/13 07:06:41;;;;;;;3.05;1.85;;;;;;;;;;5001416;28;92470;-77
2024/01/13 07:09:08;;;;;;;2.20;2.10;;;;;;;;;;4991243;28;92448;-77
2024/01/13 07:11:34;;;;;;;2.00;1.90;;;;;;;;;;5002395;28;92720;-77
2024/01/13 07:14:01;;;;;;;2.13;1.92;;;;;;;;;;4990501;28;93189;-78
2024/01/13 07:16:28;;;;;;;2.03;1.85;;;;;;;;;;5000112;28;94928;-77
2024/01/13 07:18:54;;;;;;;8.65;2.28;;;;;;;;;;4993561;28;93975;-77
2024/01/13 07:21:21;;;;;;;1.80;1.70;;;;;;;;;;5001077;28;92459;-77
2024/01/13 07:23:47;;;;;;;1.35;1.25;;;;;;;;;;4995260;28;92569;-77
2024/01/13 07:26:14;;;;;;;1.63;1.52;;;;;;;;;;4991706;28;92419;-77
2024/01/13 07:28:41;;;;;;;2.00;1.58;;;;;;;;;;4989341;28;92706;-77
2024/01/13 07:31:08;;;;;;;2.00;1.60;;;;;;;;;;5004247;28;92378;-77
2024/01/13 07:33:34;;;;;;;1.45;1.35;;;;;;;;;;4991180;28;92111;-77
2024/01/13 07:36:01;;;;;;;1.48;1.35;;;;;;;;;;4992342;28;92408;-77
2024/01/13 07:38:27;;;;;;;1.67;1.20;;;;;;;;;;4992990;28;92471;-77
2024/01/13 07:40:54;;;;;;;2.88;1.45;;;;;;;;;;4993981;28;97756;-77
2024/01/13 07:43:20;;;;;;;1.77;1.30;;;;;;;;;;5004843;28;92475;-77
2024/01/13 07:45:47;;;;;;;1.13;1.10;;;;;;;;;;5013010;28;92346;-77
2024/01/13 07:48:13;;;;;;;1.10;1.10;;;;;;;;;;4998731;28;92453;-77
2024/01/13 07:50:40;;;;;;;2.05;1.27;;;;;;;;;;4999293;28;92630;-77
